Terminal Aerodrome Forecast
Issued by NWS Louisville, KY

Home | Current Version | Previous Version | Text Only | Print | Product List | Glossary On
Versions: 1 2 3 4 5 6 7 8 9 10 11 12 13
452
FTUS43 KLMK 281525 AAA
TAFBWG
TAF AMD
KBWG 281525Z 2815/2912 25006KT P6SM VCSH OVC020
     FM281600 29007KT P6SM VCTS SCT015CB OVC025
     FM282100 34008KT P6SM VCTS SCT020CB BKN045
     FM282300 35008KT P6SM SCT025 BKN050
     FM290100 36008KT P6SM FEW035 SCT080=

USA.gov is the U.S. government's official web portal to all federal, state and local government web resources and services.